Time;durP1;ratioP1;P1;durP2;ratioP2;P2;SDS_P1;SDS_P2;PMS_P1;PMS_P2;Temp;Humidity;BMP_temperature;BMP_pressure;BME280_temperature;BME280_humidity;BME280_pressure;Samples;Min_cycle;Max_cycle;Signal;HPM_P1;HPM_P2
2021/09/22 00:00:27;;;;;;;2.65;1.90;;;;;;;;;;5007458;28;20077;-84
2021/09/22 00:02:53;;;;;;;5.07;2.75;;;;;;;;;;5008959;28;20030;-85
2021/09/22 00:05:19;;;;;;;6.47;2.92;;;;;;;;;;5009205;28;20072;-85
2021/09/22 00:07:45;;;;;;;4.47;2.55;;;;;;;;;;4994246;28;20042;-85
2021/09/22 00:10:14;;;;;;;4.53;2.80;;;;;;;;;;5003193;28;20045;-84
2021/09/22 00:12:40;;;;;;;5.95;3.47;;;;;;;;;;5024447;28;20103;-84
2021/09/22 00:15:07;;;;;;;6.55;2.67;;;;;;;;;;5004043;28;20478;-84
2021/09/22 00:17:33;;;;;;;;;;;;;;;;;;5009355;28;20111;-85
2021/09/22 00:20:00;;;;;;;2.85;1.77;;;;;;;;;;4993745;28;19973;-85
2021/09/22 00:22:26;;;;;;;4.22;2.50;;;;;;;;;;5009871;28;20042;-85
2021/09/22 00:24:52;;;;;;;4.15;2.08;;;;;;;;;;5001635;28;20032;-85
2021/09/22 00:27:18;;;;;;;6.70;3.50;;;;;;;;;;4998115;28;20419;-84
2021/09/22 00:29:44;;;;;;;5.22;2.88;;;;;;;;;;5011540;28;20018;-86
2021/09/22 00:32:10;;;;;;;2.95;2.42;;;;;;;;;;4997128;28;20146;-86
2021/09/22 00:34:36;;;;;;;3.90;1.95;;;;;;;;;;5000317;28;20023;-85
2021/09/22 00:37:06;;;;;;;4.50;2.83;;;;;;;;;;4998283;28;20038;-84
2021/09/22 00:39:36;;;;;;;4.82;2.78;;;15.80;66.70;;;;;;5005734;28;20045;-85
2021/09/22 00:42:05;;;;;;;4.13;2.58;;;;;;;;;;5012599;28;20129;-85
2021/09/22 00:44:45;;;;;;;5.68;3.00;;;15.60;67.40;;;;;;4998327;28;20034;-86
2021/09/22 00:47:13;;;;;;;4.63;2.00;;;;;;;;;;4996405;28;20031;-85
2021/09/22 00:49:39;;;;;;;4.25;2.30;;;;;;;;;;5000114;28;20033;-85
2021/09/22 00:52:05;;;;;;;4.93;3.17;;;;;;;;;;5006620;28;20030;-84
2021/09/22 00:54:31;;;;;;;3.47;2.10;;;;;;;;;;5010737;28;20550;-84
2021/09/22 00:56:57;;;;;;;6.82;3.00;;;;;;;;;;5012585;28;20090;-86
2021/09/22 00:59:23;;;;;;;4.80;2.65;;;;;;;;;;5012112;28;20399;-84
2021/09/22 01:01:50;;;;;;;3.33;2.55;;;;;;;;;;5008946;28;20042;-84
2021/09/22 01:04:16;;;;;;;4.63;2.83;;;;;;;;;;5012296;28;20053;-85
2021/09/22 01:06:43;;;;;;;4.85;3.17;;;;;;;;;;5023107;28;20041;-86
2021/09/22 01:09:09;;;;;;;4.40;2.38;;;;;;;;;;5012817;28;20137;-84
2021/09/22 01:11:35;;;;;;;5.40;3.25;;;;;;;;;;5010850;28;20030;-84
2021/09/22 01:14:02;;;;;;;6.50;2.58;;;;;;;;;;5008934;28;20018;-85
2021/09/22 01:16:28;;;;;;;4.20;2.63;;;;;;;;;;4996670;28;20026;-86
2021/09/22 01:18:54;;;;;;;3.03;2.10;;;;;;;;;;5003846;28;20497;-85
2021/09/22 01:21:21;;;;;;;5.88;3.33;;;;;;;;;;5024677;28;20046;-85
2021/09/22 01:23:47;;;;;;;4.20;2.53;;;;;;;;;;4996806;28;20072;-84
2021/09/22 01:26:13;;;;;;;4.07;2.63;;;;;;;;;;4996284;28;20463;-85
2021/09/22 01:28:39;;;;;;;3.80;2.53;;;;;;;;;;5006403;28;20070;-84
2021/09/22 01:31:05;;;;;;;6.07;3.30;;;;;;;;;;4998464;28;20035;-84
2021/09/22 01:33:31;;;;;;;4.93;2.83;;;;;;;;;;5015514;28;20022;-84
2021/09/22 01:35:57;;;;;;;4.70;1.92;;;;;;;;;;5012088;28;20034;-84
2021/09/22 01:38:24;;;;;;;4.70;2.28;;;;;;;;;;5011018;28;20084;-84
2021/09/22 01:41:03;;;;;;;8.55;3.35;;;15.30;67.20;;;;;;4997406;28;20034;-85
2021/09/22 01:43:30;;;;;;;5.90;3.50;;;;;;;;;;4994872;28;20033;-85
2021/09/22 01:45:57;;;;;;;4.20;2.45;;;;;;;;;;5000335;28;20062;-84
2021/09/22 01:48:23;;;;;;;4.50;2.63;;;;;;;;;;5004213;28;20026;-84
2021/09/22 01:50:49;;;;;;;4.20;2.63;;;;;;;;;;5025925;28;20040;-85
2021/09/22 01:53:15;;;;;;;4.55;2.75;;;;;;;;;;4995190;28;20065;-84
2021/09/22 01:55:41;;;;;;;4.82;2.20;;;;;;;;;;4997223;28;20494;-85
2021/09/22 01:58:07;;;;;;;5.13;2.22;;;;;;;;;;5008965;28;20080;-85
2021/09/22 02:00:33;;;;;;;4.75;3.05;;;;;;;;;;5006703;28;20038;-85
2021/09/22 02:02:59;;;;;;;6.32;2.90;;;;;;;;;;5014715;28;20033;-85
2021/09/22 02:05:25;;;;;;;5.20;2.25;;;;;;;;;;5010141;28;20026;-84
2021/09/22 02:07:51;;;;;;;4.28;2.40;;;;;;;;;;5022294;28;20018;-86
2021/09/22 02:10:17;;;;;;;4.25;2.95;;;;;;;;;;5013329;28;20058;-85
2021/09/22 02:12:43;;;;;;;4.80;2.50;;;;;;;;;;5002122;28;20064;-85
2021/09/22 02:15:10;;;;;;;5.82;2.85;;;;;;;;;;5011609;28;20025;-84
2021/09/22 02:17:36;;;;;;;4.53;2.55;;;;;;;;;;5009962;28;20096;-83
2021/09/22 02:20:04;;;;;;;5.18;2.28;;;;;;;;;;5023562;28;20585;-84
2021/09/22 02:22:30;;;;;;;3.60;1.88;;;;;;;;;;4994319;28;20543;-85
2021/09/22 02:24:56;;;;;;;4.20;2.50;;;;;;;;;;5014141;28;20570;-84
2021/09/22 02:27:22;;;;;;;2.75;1.92;;;;;;;;;;5013004;28;20022;-84
2021/09/22 02:29:48;;;;;;;4.85;2.70;;;;;;;;;;5025938;28;20029;-85
2021/09/22 02:32:15;;;;;;;8.82;2.65;;;15.00;66.40;;;;;;5009285;28;20133;-84
2021/09/22 02:34:41;;;;;;;4.82;1.88;;;;;;;;;;4996061;28;20031;-84
2021/09/22 02:37:07;;;;;;;9.32;2.92;;;;;;;;;;5004629;28;20087;-84
2021/09/22 02:39:34;;;;;;;6.07;3.00;;;;;;;;;;5020582;28;20114;-85
2021/09/22 02:42:00;;;;;;;5.00;2.30;;;;;;;;;;5020766;28;20044;-84
2021/09/22 02:44:26;;;;;;;6.43;3.47;;;;;;;;;;5008451;28;20038;-84
2021/09/22 02:46:52;;;;;;;4.65;2.40;;;;;;;;;;4995924;28;20035;-85
2021/09/22 02:49:19;;;;;;;4.05;2.03;;;;;;;;;;5011529;28;20030;-84
2021/09/22 02:51:45;;;;;;;6.55;2.92;;;;;;;;;;4995134;28;20041;-84
2021/09/22 02:54:11;;;;;;;6.68;3.08;;;;;;;;;;5012788;28;20075;-84
2021/09/22 02:56:37;;;;;;;6.25;2.97;;;;;;;;;;4995483;28;20054;-84
2021/09/22 02:59:03;;;;;;;3.92;2.50;;;;;;;;;;5000826;28;21472;-85
2021/09/22 03:01:29;;;;;;;7.38;2.83;;;;;;;;;;5010788;28;20380;-85
2021/09/22 03:03:56;;;;;;;4.60;2.80;;;;;;;;;;5020306;28;20083;-84
2021/09/22 03:06:22;;;;;;;4.30;2.25;;;;;;;;;;5010451;28;20080;-84
2021/09/22 03:08:49;;;;;;;4.40;3.17;;;;;;;;;;5010481;28;20029;-85
2021/09/22 03:11:15;;;;;;;4.63;2.58;;;;;;;;;;5009872;28;20048;-84
2021/09/22 03:13:41;;;;;;;4.43;2.45;;;;;;;;;;5006352;28;20034;-85
2021/09/22 03:16:08;;;;;;;5.30;2.80;;;;;;;;;;5020444;28;20034;-85
2021/09/22 03:18:34;;;;;;;3.80;2.00;;;;;;;;;;5009160;28;20439;-85
2021/09/22 03:21:00;;;;;;;4.75;2.80;;;;;;;;;;5004174;28;20046;-84
2021/09/22 03:23:26;;;;;;;4.60;2.65;;;;;;;;;;5008858;28;20104;-86
2021/09/22 03:25:53;;;;;;;6.00;2.40;;;;;;;;;;5026188;28;20140;-84
2021/09/22 03:28:19;;;;;;;6.78;2.60;;;;;;;;;;5009355;28;20410;-84
2021/09/22 03:30:45;;;;;;;4.93;2.55;;;;;;;;;;5002925;28;20031;-84
2021/09/22 03:33:11;;;;;;;4.65;2.45;;;;;;;;;;5011243;28;20125;-85
2021/09/22 03:35:37;;;;;;;5.47;2.50;;;;;;;;;;5010097;28;20034;-85
2021/09/22 03:38:03;;;;;;;5.35;2.90;;;;;;;;;;5009084;28;20030;-84
2021/09/22 03:40:29;;;;;;;4.82;3.00;;;;;;;;;;4997144;28;20023;-85
2021/09/22 03:42:56;;;;;;;3.80;2.10;;;;;;;;;;5005976;28;20057;-85
2021/09/22 03:45:22;;;;;;;4.80;2.50;;;;;;;;;;5021683;28;20198;-85
2021/09/22 03:47:48;;;;;;;3.60;2.25;;;;;;;;;;4997587;28;20026;-84
2021/09/22 03:50:14;;;;;;;6.35;2.80;;;14.50;68.00;;;;;;5008911;28;20449;-85
2021/09/22 03:52:40;;;;;;;3.63;2.03;;;;;;;;;;5009982;28;20121;-84
2021/09/22 03:55:07;;;;;;;3.85;1.75;;;;;;;;;;4998843;28;20117;-85
2021/09/22 03:57:33;;;;;;;2.55;1.65;;;;;;;;;;4998074;28;20022;-84
2021/09/22 03:59:59;;;;;;;4.20;2.72;;;;;;;;;;4998586;28;20029;-85
2021/09/22 04:02:25;;;;;;;2.42;1.50;;;;;;;;;;5024696;28;20153;-85
2021/09/22 04:04:51;;;;;;;3.75;1.98;;;;;;;;;;5021079;28;20025;-84
2021/09/22 04:07:17;;;;;;;5.80;2.70;;;;;;;;;;5007072;28;20042;-83
2021/09/22 04:09:43;;;;;;;4.60;2.65;;;;;;;;;;5017167;28;20591;-84
2021/09/22 04:12:09;;;;;;;4.90;2.50;;;;;;;;;;5017842;28;20026;-84
2021/09/22 04:14:35;;;;;;;5.63;2.50;;;;;;;;;;5011161;28;20023;-84
2021/09/22 04:17:01;;;;;;;4.55;2.60;;;;;;;;;;5011762;28;20018;-83
2021/09/22 04:19:27;;;;;;;2.95;2.10;;;;;;;;;;5001965;28;20018;-84
2021/09/22 04:21:53;;;;;;;4.80;2.78;;;;;;;;;;5004803;28;20072;-84
2021/09/22 04:24:19;;;;;;;5.90;2.30;;;;;;;;;;5025005;28;20054;-84
2021/09/22 04:26:45;;;;;;;5.40;3.13;;;;;;;;;;4997964;28;20053;-85
2021/09/22 04:29:11;;;;;;;12.27;3.42;;;;;;;;;;5011248;28;20380;-84
2021/09/22 04:31:37;;;;;;;4.25;2.40;;;;;;;;;;5009396;28;20037;-84
2021/09/22 04:34:04;;;;;;;6.43;2.72;;;;;;;;;;5003376;28;20084;-84
2021/09/22 04:36:30;;;;;;;5.38;2.72;;;;;;;;;;5005810;28;20037;-84
2021/09/22 04:38:56;;;;;;;3.97;2.65;;;;;;;;;;5013150;28;20058;-84
2021/09/22 04:41:22;;;;;;;12.77;2.78;;;;;;;;;;5012405;28;20069;-84
2021/09/22 04:43:48;;;;;;;9.10;5.35;;;;;;;;;;5012196;28;20018;-84
2021/09/22 04:46:15;;;;;;;5.25;2.75;;;14.80;68.30;;;;;;5013493;28;20037;-84
2021/09/22 04:48:42;;;;;;;5.78;2.95;;;;;;;;;;5002494;28;20035;-84
2021/09/22 04:51:08;;;;;;;8.13;2.42;;;;;;;;;;4998787;28;20113;-84
2021/09/22 04:53:34;;;;;;;5.43;2.43;;;;;;;;;;5011622;28;20064;-84
2021/09/22 04:56:01;;;;;;;5.28;3.53;;;;;;;;;;5024486;28;20025;-85
2021/09/22 04:58:27;;;;;;;8.32;3.05;;;;;;;;;;5004564;28;20065;-84
2021/09/22 05:00:53;;;;;;;6.22;2.75;;;;;;;;;;5008254;28;20041;-84
2021/09/22 05:03:19;;;;;;;6.10;3.40;;;;;;;;;;5025525;28;20026;-84
2021/09/22 05:05:45;;;;;;;6.50;3.17;;;;;;;;;;5011693;28;20052;-86
2021/09/22 05:08:11;;;;;;;5.72;3.47;;;;;;;;;;5005558;28;20022;-84
2021/09/22 05:10:37;;;;;;;5.97;2.90;;;;;;;;;;5023615;28;20097;-84
2021/09/22 05:13:03;;;;;;;6.10;2.95;;;;;;;;;;5011198;28;20549;-85
2021/09/22 05:15:29;;;;;;;5.88;3.00;;;;;;;;;;5007689;28;20525;-85
2021/09/22 05:17:55;;;;;;;6.68;3.42;;;;;;;;;;5010922;28;20041;-83
2021/09/22 05:20:22;;;;;;;3.88;2.45;;;;;;;;;;5012041;28;20042;-85
2021/09/22 05:22:48;;;;;;;4.30;2.17;;;;;;;;;;5011537;28;20030;-84
2021/09/22 05:25:14;;;;;;;5.22;3.17;;;;;;;;;;5023596;28;20046;-84
2021/09/22 05:27:42;;;;;;;6.05;3.05;;;;;;;;;;5009373;28;20482;-85
2021/09/22 05:30:08;;;;;;;6.47;2.97;;;;;;;;;;5002155;28;20042;-85
2021/09/22 05:32:34;;;;;;;6.13;3.38;;;;;;;;;;5004131;28;20026;-85
2021/09/22 05:35:00;;;;;;;5.63;3.15;;;;;;;;;;4994432;28;20176;-86
2021/09/22 05:37:27;;;;;;;6.18;3.13;;;;;;;;;;5006861;28;20560;-85
2021/09/22 05:39:53;;;;;;;7.00;3.67;;;;;;;;;;5005052;28;20030;-86
2021/09/22 05:42:19;;;;;;;6.78;3.05;;;;;;;;;;5009418;28;20045;-84
2021/09/22 05:44:45;;;;;;;5.57;2.80;;;;;;;;;;5003157;28;20514;-84
2021/09/22 05:47:11;;;;;;;10.35;3.40;;;;;;;;;;5006750;28;20105;-84
2021/09/22 05:49:37;;;;;;;5.05;2.92;;;;;;;;;;5006124;28;20034;-86
2021/09/22 05:52:03;;;;;;;5.85;3.58;;;;;;;;;;5003155;28;20041;-84
2021/09/22 05:54:29;;;;;;;6.65;3.58;;;;;;;;;;5023174;28;20034;-84
2021/09/22 05:56:55;;;;;;;7.75;3.22;;;;;;;;;;5006292;28;20496;-85
2021/09/22 05:59:21;;;;;;;5.78;3.58;;;;;;;;;;5023634;28;20115;-85
2021/09/22 06:01:47;;;;;;;8.75;4.07;;;;;;;;;;5011535;28;20033;-85
2021/09/22 06:04:13;;;;;;;6.25;3.42;;;;;;;;;;5009868;28;20034;-84
2021/09/22 06:06:39;;;;;;;8.57;3.88;;;;;;;;;;4998420;28;20022;-84
2021/09/22 06:09:05;;;;;;;9.85;3.75;;;;;;;;;;5022942;28;20115;-85
2021/09/22 06:11:31;;;;;;;8.23;4.43;;;;;;;;;;5010588;28;20087;-83
2021/09/22 06:13:57;;;;;;;8.25;4.05;;;;;;;;;;5008668;28;20026;-84
2021/09/22 06:16:25;;;;;;;8.20;4.15;;;;;;;;;;5009793;28;20062;-84
2021/09/22 06:18:51;;;;;;;7.90;4.32;;;;;;;;;;5023346;28;20523;-84
2021/09/22 06:21:17;;;;;;;9.00;4.03;;;;;;;;;;5004962;28;20031;-85
2021/09/22 06:23:43;;;;;;;9.20;4.10;;;;;;;;;;5019646;28;20088;-87
2021/09/22 06:26:09;;;;;;;8.93;5.35;;;;;;;;;;4996478;28;20100;-91
2021/09/22 06:28:35;;;;;;;8.90;4.70;;;;;;;;;;4986662;28;20042;-88
2021/09/22 06:31:02;;;;;;;9.40;4.35;;;;;;;;;;4992836;28;20392;-88
2021/09/22 06:33:28;;;;;;;9.70;4.82;;;;;;;;;;5003492;28;20407;-87
2021/09/22 06:35:59;;;;;;;10.73;4.68;;;;;;;;;;4999601;28;20061;-89
2021/09/22 06:38:28;;;;;;;10.77;5.38;;;;;;;;;;4993891;28;20474;-89
2021/09/22 06:40:54;;;;;;;10.35;6.15;;;;;;;;;;4994111;28;20380;-89
2021/09/22 06:43:20;;;;;;;9.60;4.33;;;;;;;;;;4992263;28;20124;-88
2021/09/22 06:45:46;;;;;;;11.02;4.97;;;;;;;;;;4993285;28;20061;-88
2021/09/22 06:48:12;;;;;;;7.38;3.58;;;;;;;;;;4984239;28;20077;-84
2021/09/22 06:50:38;;;;;;;10.40;4.28;;;;;;;;;;4975235;28;20030;-85
2021/09/22 06:53:04;;;;;;;8.07;4.03;;;;;;;;;;4987948;28;20037;-83
2021/09/22 06:55:31;;;;;;;6.15;3.33;;;;;;;;;;4986880;28;20038;-84
2021/09/22 06:57:57;;;;;;;7.80;3.17;;;;;;;;;;4988350;28;20534;-83
2021/09/22 07:00:23;;;;;;;7.35;4.68;;;;;;;;;;5003445;28;20030;-83
2021/09/22 07:02:49;;;;;;;10.25;3.80;;;;;;;;;;4986429;28;20047;-83
2021/09/22 07:05:15;;;;;;;9.48;4.07;;;;;;;;;;5000439;28;20068;-83
2021/09/22 07:07:46;;;;;;;7.55;4.28;;;;;;;;;;4985245;28;20049;-83
2021/09/22 07:10:12;;;;;;;8.48;5.28;;;;;;;;;;4991760;28;20061;-84
2021/09/22 07:12:38;;;;;;;9.75;4.47;;;;;;;;;;4983512;28;20062;-83
2021/09/22 07:15:04;;;;;;;14.43;4.75;;;;;;;;;;4988301;28;20068;-84
2021/09/22 07:17:30;;;;;;;7.75;4.78;;;;;;;;;;4991005;28;20618;-83
2021/09/22 07:19:56;;;;;;;12.02;6.15;;;;;;;;;;4987581;28;20030;-83
2021/09/22 07:22:22;;;;;;;10.38;5.72;;;;;;;;;;4974266;28;20089;-83
2021/09/22 07:24:49;;;;;;;11.27;4.57;;;;;;;;;;5000732;28;20054;-85
2021/09/22 07:27:15;;;;;;;9.35;3.92;;;;;;;;;;4986665;28;20034;-83
2021/09/22 07:29:41;;;;;;;12.45;5.68;;;;;;;;;;4981644;28;20030;-83
2021/09/22 07:32:07;;;;;;;8.52;4.43;;;;;;;;;;4988984;28;20031;-85
2021/09/22 07:34:34;;;;;;;8.60;4.22;;;;;;;;;;4972853;28;20038;-84
2021/09/22 07:37:01;;;;;;;8.32;4.20;;;;;;;;;;4983160;28;20443;-83
2021/09/22 07:39:27;;;;;;;8.43;3.72;;;;;;;;;;4999156;28;20034;-84
2021/09/22 07:41:53;;;;;;;9.73;3.67;;;;;;;;;;4977467;28;20038;-88
2021/09/22 07:44:19;;;;;;;8.88;4.85;;;;;;;;;;4987446;28;20026;-85
2021/09/22 07:46:45;;;;;;;11.35;4.88;;;;;;;;;;4989794;28;20080;-85
2021/09/22 07:49:11;;;;;;;12.77;5.15;;;;;;;;;;4984855;28;20503;-84
2021/09/22 07:51:37;;;;;;;15.00;5.70;;;;;;;;;;4988221;28;20121;-85
2021/09/22 07:54:03;;;;;;;12.88;6.35;;;;;;;;;;5003987;28;20655;-84
2021/09/22 07:56:29;;;;;;;13.23;6.45;;;;;;;;;;4980535;28;20042;-85
2021/09/22 07:58:55;;;;;;;14.13;4.70;;;;;;;;;;4988130;28;20033;-84
2021/09/22 08:01:21;;;;;;;13.02;6.45;;;;;;;;;;4988668;28;20649;-84
2021/09/22 08:03:47;;;;;;;17.92;5.13;;;;;;;;;;4988588;28;20030;-82
2021/09/22 08:06:14;;;;;;;12.55;3.80;;;;;;;;;;4985548;28;20027;-84
2021/09/22 08:08:40;;;;;;;8.75;3.65;;;;;;;;;;4999233;28;20411;-85
2021/09/22 08:11:06;;;;;;;8.57;4.78;;;;;;;;;;4988658;28;20118;-82
2021/09/22 08:13:32;;;;;;;14.77;4.65;;;;;;;;;;4975794;28;20418;-84
2021/09/22 08:15:58;;;;;;;8.93;6.03;;;;;;;;;;4986027;28;20606;-84
2021/09/22 08:18:24;;;;;;;6.60;3.60;;;;;;;;;;4988207;28;20105;-83
2021/09/22 08:20:50;;;;;;;13.60;5.60;;;;;;;;;;4988717;28;20129;-84
2021/09/22 08:23:16;;;;;;;11.32;4.43;;;;;;;;;;4987305;28;20391;-84
2021/09/22 08:25:42;;;;;;;7.97;4.60;;;;;;;;;;4989326;28;20060;-84
2021/09/22 08:28:08;;;;;;;9.65;5.18;;;;;;;;;;4986908;28;20033;-83
2021/09/22 08:30:34;;;;;;;8.98;4.30;;;;;;;;;;4982933;28;20038;-83
2021/09/22 08:33:00;;;;;;;14.20;5.63;;;;;;;;;;4976606;28;20026;-84
2021/09/22 08:35:26;;;;;;;11.18;5.22;;;;;;;;;;4972490;28;20042;-84
2021/09/22 08:37:52;;;;;;;12.45;5.82;;;;;;;;;;4973257;28;20112;-84
2021/09/22 08:40:18;;;;;;;13.90;5.68;;;;;;;;;;4987118;28;20030;-83
2021/09/22 08:42:44;;;;;;;10.65;4.65;;;;;;;;;;4985003;28;20477;-84
2021/09/22 08:45:11;;;;;;;9.05;4.78;;;;;;;;;;5001407;28;20034;-85
2021/09/22 08:47:37;;;;;;;5.80;3.22;;;;;;;;;;4974266;28;20034;-84
2021/09/22 08:50:03;;;;;;;9.07;5.03;;;;;;;;;;4986051;28;20037;-85
2021/09/22 08:52:30;;;;;;;8.05;4.78;;;;;;;;;;4977174;28;20023;-84
2021/09/22 08:54:56;;;;;;;6.88;4.10;;;;;;;;;;4987882;28;20114;-83
2021/09/22 08:57:22;;;;;;;10.27;5.13;;;;;;;;;;4990764;28;20129;-84
2021/09/22 08:59:48;;;;;;;11.95;4.50;;;;;;;;;;4991762;28;20038;-85
2021/09/22 09:02:15;;;;;;;8.35;5.00;;;;;;;;;;4976008;28;20035;-84
2021/09/22 09:04:43;;;;;;;9.05;4.85;;;18.50;64.50;;;;;;4977207;28;20055;-85
2021/09/22 09:07:10;;;;;;;8.13;4.28;;;;;;;;;;4987787;28;20041;-82
2021/09/22 09:09:36;;;;;;;14.13;5.17;;;;;;;;;;4990109;28;20026;-84
2021/09/22 09:12:02;;;;;;;14.40;5.10;;;;;;;;;;4987329;28;20033;-84
2021/09/22 09:14:32;;;;;;;12.43;5.40;;;;;;;;;;4990527;28;20026;-84
2021/09/22 09:17:01;;;;;;;8.63;3.90;;;;;;;;;;4987988;28;20053;-85
2021/09/22 09:19:27;;;;;;;7.15;3.47;;;;;;;;;;4990948;28;20022;-83
2021/09/22 09:21:56;;;;;;;12.10;4.03;;;;;;;;;;4990939;28;20046;-83
2021/09/22 09:24:41;;;;;;;10.27;4.50;;;20.80;57.20;;;;;;4990288;28;20038;-84
2021/09/22 09:27:12;;;;;;;10.88;4.82;;;;;;;;;;4988385;28;20042;-84
2021/09/22 09:29:41;;;;;;;7.85;4.28;;;;;;;;;;4986852;28;20033;-84
2021/09/22 09:32:16;;;;;;;6.55;4.03;;;21.70;55.60;;;;;;4975260;28;20118;-85
2021/09/22 09:34:57;;;;;;;6.13;3.72;;;;;;;;;;5000450;28;20034;-84
2021/09/22 09:37:37;;;;;;;8.63;4.53;;;;;;;;;;4979988;28;20134;-85
2021/09/22 09:40:15;;;;;;;8.45;4.30;;;;;;;;;;4988020;28;20030;-85
2021/09/22 09:42:42;;;;;;;7.75;3.42;;;;;;;;;;4987083;28;20439;-83
2021/09/22 09:45:08;;;;;;;7.70;4.28;;;;;;;;;;4990177;28;20074;-83
2021/09/22 09:47:34;;;;;;;11.38;5.05;;;;;;;;;;5005696;28;20038;-85
2021/09/22 09:50:20;;;;;;;6.85;3.40;;;;;;;;;;4990482;28;20023;-85
2021/09/22 09:52:54;;;;;;;9.85;4.88;;;;;;;;;;4986327;28;20045;-85
2021/09/22 09:55:23;;;;;;;10.07;4.00;;;;;;;;;;4989665;28;20081;-85
2021/09/22 09:57:49;;;;;;;7.15;4.28;;;;;;;;;;4984925;28;20026;-87
2021/09/22 10:00:16;;;;;;;8.77;3.80;;;;;;;;;;4981315;28;20026;-85
2021/09/22 10:02:43;;;;;;;6.82;3.25;;;;;;;;;;4990128;28;20814;-86
2021/09/22 10:05:09;;;;;;;5.00;3.38;;;;;;;;;;4988775;28;20038;-85
2021/09/22 10:07:35;;;;;;;9.07;4.17;;;;;;;;;;4991290;28;20034;-86
2021/09/22 10:10:03;;;;;;;11.50;4.45;;;;;;;;;;4981778;28;20105;-86
2021/09/22 10:12:29;;;;;;;5.53;3.63;;;;;;;;;;4989192;28;20037;-83
2021/09/22 10:14:56;;;;;;;8.60;4.30;;;;;;;;;;4995880;28;20023;-84
2021/09/22 10:17:25;;;;;;;6.43;3.67;;;25.40;45.90;;;;;;4992363;28;20034;-85
2021/09/22 10:19:52;;;;;;;6.80;3.65;;;;;;;;;;4988633;28;20109;-85
2021/09/22 10:22:18;;;;;;;8.65;4.57;;;;;;;;;;4978809;28;20042;-84
2021/09/22 10:24:46;;;;;;;9.48;4.03;;;;;;;;;;4988578;28;20047;-84
2021/09/22 10:27:16;;;;;;;8.43;3.60;;;25.20;47.70;;;;;;4984751;28;20034;-84
2021/09/22 10:29:58;;;;;;;8.60;3.67;;;;;;;;;;4985220;28;20051;-85
2021/09/22 10:32:37;;;;;;;8.93;4.50;;;;;;;;;;5002398;28;20114;-86
2021/09/22 10:35:36;;;;;;;8.20;4.25;;;;;;;;;;4987092;28;20030;-84
2021/09/22 10:38:38;;;;;;;6.70;3.75;;;25.10;46.20;;;;;;4978661;28;20554;-84
2021/09/22 10:41:04;;;;;;;7.93;4.05;;;;;;;;;;4926982;29;20118;-84
2021/09/22 10:43:30;;;;;;;11.70;5.70;;;;;;;;;;4927733;29;20142;-84
2021/09/22 10:45:59;;;;;;;6.35;3.05;;;;;;;;;;4927067;29;20023;-84
2021/09/22 10:48:25;;;;;;;11.57;3.60;;;;;;;;;;4921701;29;20032;-84
2021/09/22 10:50:52;;;;;;;9.98;4.60;;;;;;;;;;4921371;29;20087;-83
2021/09/22 10:53:33;;;;;;;8.40;3.78;;;;;;;;;;4925915;29;20040;-85
2021/09/22 10:56:11;;;;;;;9.05;3.50;;;;;;;;;;4919977;29;20032;-86
2021/09/22 10:58:43;;;;;;;6.88;3.60;;;;;;;;;;4917170;29;20039;-83
2021/09/22 11:01:09;;;;;;;10.68;4.32;;;;;;;;;;4917780;29;20048;-84
2021/09/22 11:03:50;;;;;;;11.93;4.03;;;;;;;;;;4926601;29;20050;-84
2021/09/22 11:06:47;;;;;;;5.53;3.08;;;23.50;47.80;;;;;;4918089;29;20067;-85
2021/09/22 11:09:13;;;;;;;;;;;;;;;;;;4926044;29;20059;-82
2021/09/22 11:12:00;;;;;;;9.07;4.32;;;;;;;;;;4918190;29;19945;-85
2021/09/22 11:14:32;;;;;;;11.02;5.10;;;;;;;;;;4920882;29;20044;-85
2021/09/22 11:17:03;;;;;;;9.27;5.07;;;;;;;;;;4954127;28;20034;-84
2021/09/22 11:19:29;;;;;;;9.32;4.00;;;22.70;51.10;;;;;;4984011;28;20419;-83
2021/09/22 11:21:56;;;;;;;41.45;5.70;;;;;;;;;;4981254;28;20090;-84
2021/09/22 11:24:28;;;;;;;12.52;3.85;;;22.60;51.50;;;;;;4985523;28;20053;-84
2021/09/22 11:26:54;;;;;;;7.97;3.20;;;;;;;;;;4988321;28;20030;-85
2021/09/22 11:29:29;;;;;;;17.90;5.60;;;;;;;;;;4987621;28;20795;-87
2021/09/22 11:31:55;;;;;;;6.45;4.07;;;;;;;;;;4985879;28;20105;-87
2021/09/22 11:34:25;;;;;;;10.35;4.72;;;;;;;;;;4976542;28;20076;-86
2021/09/22 11:37:12;;;;;;;6.82;3.92;;;22.60;53.50;;;;;;4986811;28;20068;-87
2021/09/22 11:39:39;;;;;;;6.00;4.28;;;22.60;53.10;;;;;;4990095;28;20034;-86
2021/09/22 11:42:06;;;;;;;7.82;4.20;;;22.50;51.90;;;;;;4990394;28;20113;-85
2021/09/22 11:44:33;;;;;;;;;;;22.40;54.80;;;;;;4991439;28;20567;-86
2021/09/22 11:47:00;;;;;;;7.10;4.07;;;;;;;;;;4987822;28;19905;-88
2021/09/22 11:49:32;;;;;;;8.38;3.67;;;;;;;;;;4991187;28;20027;-88
2021/09/22 11:52:05;;;;;;;8.00;3.83;;;;;;;;;;5007265;28;20030;-84
2021/09/22 11:54:34;;;;;;;7.95;4.18;;;;;;;;;;4985923;28;20115;-87
2021/09/22 11:57:03;;;;;;;8.10;4.18;;;;;;;;;;4979664;28;20046;-89
2021/09/22 11:59:35;;;;;;;8.20;3.42;;;;;;;;;;4975362;28;20554;-88
2021/09/22 12:02:02;;;;;;;10.23;4.47;;;;;;;;;;4991529;28;20080;-88
2021/09/22 12:04:46;;;;;;;8.83;3.83;;;;;;;;;;4989348;28;20033;-86
2021/09/22 12:07:13;;;;;;;6.15;2.83;;;;;;;;;;4980896;28;20278;-94
2021/09/22 12:09:40;;;;;;;4.57;2.73;;;;;;;;;;4986620;28;20049;-95
2021/09/22 12:12:06;;;;;;;5.55;2.95;;;;;;;;;;4990539;28;20057;-93
2021/09/22 12:14:33;;;;;;;6.47;3.22;;;;;;;;;;4988131;28;20122;-93
2021/09/22 12:17:09;;;;;;;6.63;3.38;;;22.40;52.00;;;;;;4991942;28;20056;-92
2021/09/22 12:19:38;;;;;;;5.05;2.53;;;22.30;52.30;;;;;;4985353;28;20510;-91
2021/09/22 12:22:05;;;;;;;5.30;3.42;;;;;;;;;;4984269;28;20043;-93
2021/09/22 12:24:33;;;;;;;5.03;2.95;;;;;;;;;;5000424;28;20046;-93
2021/09/22 12:26:59;;;;;;;6.13;3.22;;;;;;;;;;4994947;28;20037;-92
2021/09/22 12:29:25;;;;;;;6.10;3.28;;;;;;;;;;4996032;28;20622;-92
2021/09/22 12:31:53;;;;;;;2.65;1.75;;;;;;;;;;4996586;28;20066;-93
2021/09/22 12:34:25;;;;;;;5.45;3.05;;;22.20;52.30;;;;;;4995399;28;20554;-94
2021/09/22 12:36:54;;;;;;;7.82;3.35;;;;;;;;;;4995702;28;20121;-93
2021/09/22 12:39:23;;;;;;;7.35;3.03;;;;;;;;;;4996141;28;20157;-92
2021/09/22 12:42:08;;;;;;;6.65;3.40;;;22.40;54.30;;;;;;4996235;28;20042;-94
2021/09/22 12:44:52;;;;;;;5.00;2.42;;;;;;;;;;4992200;28;20038;-93
2021/09/22 12:47:18;;;;;;;5.85;2.88;;;;;;;;;;4995576;28;20052;-92
2021/09/22 12:50:03;;;;;;;3.33;2.13;;;;;;;;;;4994221;28;20496;-93
2021/09/22 12:52:29;;;;;;;7.80;2.58;;;;;;;;;;5009599;28;20030;-94
2021/09/22 12:54:55;;;;;;;5.93;3.13;;;;;;;;;;4984140;28;20395;-94
2021/09/22 12:57:21;;;;;;;4.85;2.42;;;;;;;;;;4986675;28;20053;-93
2021/09/22 12:59:47;;;;;;;4.60;2.75;;;;;;;;;;4989301;28;20023;-93
2021/09/22 13:02:20;;;;;;;4.85;3.15;;;;;;;;;;4992752;28;20410;-92
2021/09/22 13:04:49;;;;;;;5.25;2.78;;;;;;;;;;4995201;28;20034;-91
2021/09/22 13:07:23;;;;;;;4.35;2.70;;;;;;;;;;5000248;28;20525;-93
2021/09/22 13:09:59;;;;;;;4.57;2.33;;;;;;;;;;5000878;28;20109;-93
2021/09/22 13:12:29;;;;;;;4.23;2.37;;;21.80;56.20;;;;;;4990636;28;20030;-92
2021/09/22 13:14:55;;;;;;;3.05;1.88;;;;;;;;;;4993920;28;20264;-91
2021/09/22 13:17:21;;;;;;;4.18;2.40;;;;;;;;;;4978754;28;20040;-93
2021/09/22 13:19:47;;;;;;;5.05;2.25;;;;;;;;;;4995716;28;20118;-92
2021/09/22 13:22:13;;;;;;;5.65;3.22;;;;;;;;;;4995367;28;20126;-93
2021/09/22 13:24:39;;;;;;;4.63;2.80;;;;;;;;;;5010191;28;20097;-93
2021/09/22 13:27:06;;;;;;;11.13;3.63;;;;;;;;;;4986721;28;20100;-93
2021/09/22 13:29:32;;;;;;;4.60;2.65;;;;;;;;;;4979906;28;20788;-92
2021/09/22 13:32:03;;;;;;;9.13;4.28;;;;;;;;;;4996086;28;20030;-93
2021/09/22 13:34:29;;;;;;;6.68;2.03;;;;;;;;;;4976896;28;20043;-92
2021/09/22 13:36:56;;;;;;;4.80;2.90;;;;;;;;;;5006589;28;20041;-94
2021/09/22 13:39:22;;;;;;;6.07;2.63;;;;;;;;;;4983895;28;20027;-94
2021/09/22 13:41:48;;;;;;;6.55;2.60;;;;;;;;;;4997846;28;20093;-95
2021/09/22 13:44:14;;;;;;;2.88;1.85;;;;;;;;;;4992978;28;20395;-93
2021/09/22 13:46:48;;;;;;;3.75;2.53;;;;;;;;;;4988362;28;20101;-93
2021/09/22 13:49:15;;;;;;;3.75;2.08;;;;;;;;;;4994357;28;20475;-94
2021/09/22 13:51:45;;;;;;;4.43;3.42;;;;;;;;;;4993772;28;20142;-94
2021/09/22 13:54:12;;;;;;;4.85;2.35;;;;;;;;;;4993183;28;20039;-93
2021/09/22 13:56:38;;;;;;;4.53;2.70;;;;;;;;;;4993983;28;20105;-93
2021/09/22 13:59:06;;;;;;;5.20;2.60;;;;;;;;;;4994749;28;20065;-93
2021/09/22 14:01:32;;;;;;;6.88;3.45;;;;;;;;;;4990192;28;20480;-93
2021/09/22 14:03:59;;;;;;;5.93;3.67;;;;;;;;;;4993851;28;20034;-93
2021/09/22 14:06:25;;;;;;;5.43;2.90;;;;;;;;;;4991630;28;20606;-92
2021/09/22 14:08:51;;;;;;;4.97;3.53;;;;;;;;;;4981899;28;20065;-91
2021/09/22 14:11:17;;;;;;;7.25;3.40;;;;;;;;;;4991772;28;20053;-90
2021/09/22 14:13:43;;;;;;;6.13;3.00;;;;;;;;;;4993458;28;20089;-94
2021/09/22 14:16:09;;;;;;;8.43;3.70;;;;;;;;;;4992581;28;20038;-94
2021/09/22 14:18:35;;;;;;;7.85;4.45;;;;;;;;;;4991011;28;20035;-93
2021/09/22 14:21:01;;;;;;;11.05;3.65;;;;;;;;;;5004922;28;20029;-94
2021/09/22 14:23:28;;;;;;;6.22;3.20;;;;;;;;;;4991119;28;20090;-94
2021/09/22 14:25:55;;;;;;;5.40;3.87;;;;;;;;;;4994630;28;20057;-94
2021/09/22 14:28:22;;;;;;;5.85;3.03;;;;;;;;;;4992611;28;20618;-95
2021/09/22 14:30:49;;;;;;;5.95;3.30;;;;;;;;;;5008325;28;20061;-95
2021/09/22 14:33:15;;;;;;;9.33;3.63;;;;;;;;;;5009075;28;20042;-94
2021/09/22 14:35:42;;;;;;;7.15;4.18;;;;;;;;;;4993885;28;20030;-94